Aviation Digital Data Service (ADDS)

Output produced by METARs form (1506 UTC 22 April 2019)
found at http://www.aviationweather.gov/metar/data/
 
Forecast for: BIEG (EGILSSTADIR , IS)
Text: TAF BIEG 221341Z 2215/2315 01010KT 9999 -RASN BKN020 OVC030 TX06/2215Z TN00/2306Z
Forecast period: 1500 UTC 22 April 2019 to 0200 UTC 23 April 2019
Forecast type: FROM: standard forecast or significant change
Winds: from the N (10 degrees) at 12 MPH (10 knots; 5.1 m/s)
Visibility: 6 or more miles 10+ km)
Ceiling: 2000 feet AGL
Clouds: broken clouds at 2000 feet AGL
overcast cloud deck at 3000 feet AGL
Weather: -RA -SN  (light rain, light snow)
Text: BECMG 2302/2305 3000 SNRA BKN004 OVC010
Forecast period: 0200 to 0800 UTC 23 April 2019
Forecast type: BECOMING: Conditions expected to become as follows by 0500 UTC 23 April 2019
Winds: from the N (10 degrees) at 12 MPH (10 knots; 5.1 m/s)
Visibility: 1.86 miles (2.99 km)
Ceiling: 400 feet AGL
Clouds: broken clouds at 400 feet AGL
overcast cloud deck at 1000 feet AGL
Weather: SN RA  (moderate snow, moderate rain)
Text: BECMG 2308/2310 7000 RA BKN013 OVC018
Forecast period: 0800 to 1500 UTC 23 April 2019
Forecast type: BECOMING: Conditions expected to become as follows by 1000 UTC 23 April 2019
Winds: from the N (10 degrees) at 12 MPH (10 knots; 5.1 m/s)
Visibility: 4 miles (7 km)
Ceiling: 1300 feet AGL
Clouds: broken clouds at 1300 feet AGL
overcast cloud deck at 1800 feet AGL
Weather: RA  (moderate rain)